Time;durP1;ratioP1;P1;durP2;ratioP2;P2;SDS_P1;SDS_P2;PMS_P1;PMS_P2;Temp;Humidity;BMP_temperature;BMP_pressure;BME280_temperature;BME280_humidity;BME280_pressure;Samples;Min_cycle;Max_cycle;Signal;HPM_P1;HPM_P2
2022/09/26 00:01:19;;;;;;;2.50;2.30;;;13.80;72.20;;;;;;5047944;28;20600;-74
2022/09/26 00:03:48;;;;;;;2.22;2.13;;;13.80;71.80;;;;;;5050748;28;20186;-74
2022/09/26 00:06:18;;;;;;;2.05;1.95;;;13.80;71.60;;;;;;5050981;28;20270;-74
2022/09/26 00:08:45;;;;;;;2.33;2.22;;;13.80;74.70;;;;;;5048383;28;20226;-74
2022/09/26 00:11:13;;;;;;;3.33;3.00;;;13.80;74.80;;;;;;5046523;28;20180;-74
2022/09/26 00:13:41;;;;;;;3.45;2.97;;;13.80;74.30;;;;;;5048203;28;20685;-74
2022/09/26 00:16:08;;;;;;;4.15;2.65;;;13.70;73.90;;;;;;5051495;28;20179;-74
2022/09/26 00:18:34;;;;;;;2.75;2.47;;;13.70;74.70;;;;;;5047279;28;20190;-74
2022/09/26 00:21:09;;;;;;;5.13;2.72;;;13.60;74.50;;;;;;5050881;28;20179;-74
2022/09/26 00:23:35;;;;;;;3.15;2.33;;;13.60;74.00;;;;;;5046110;28;20176;-75
2022/09/26 00:26:01;;;;;;;2.58;2.42;;;13.60;74.00;;;;;;5043918;28;20248;-74
2022/09/26 00:28:27;;;;;;;5.60;3.00;;;13.50;74.70;;;;;;5050441;28;20588;-74
2022/09/26 00:30:53;;;;;;;3.25;3.00;;;13.50;73.90;;;;;;5054616;28;20185;-74
2022/09/26 00:33:19;;;;;;;2.88;2.50;;;13.50;74.90;;;;;;5045475;28;20191;-74
2022/09/26 00:35:52;;;;;;;2.67;2.53;;;13.50;73.10;;;;;;5052776;28;20668;-74
2022/09/26 00:38:19;;;;;;;3.05;2.85;;;13.50;71.50;;;;;;5055490;28;20684;-74
2022/09/26 00:40:45;;;;;;;2.60;2.58;;;13.50;74.70;;;;;;5055731;28;20711;-74
2022/09/26 00:43:36;;;;;;;3.33;3.03;;;13.50;73.60;;;;;;5044102;28;20190;-74
2022/09/26 00:46:36;;;;;;;2.35;2.22;;;13.50;75.50;;;;;;5048354;28;20409;-74
2022/09/26 00:49:23;;;;;;;2.50;2.40;;;13.50;74.90;;;;;;5046961;28;20570;-74
2022/09/26 00:51:58;;;;;;;3.85;3.17;;;13.50;75.50;;;;;;5048673;28;20191;-74
2022/09/26 00:54:27;;;;;;;2.47;2.38;;;13.50;75.50;;;;;;5047779;28;20187;-74
2022/09/26 00:56:56;;;;;;;3.35;3.00;;;13.50;75.50;;;;;;5049140;28;20665;-74
2022/09/26 00:59:23;;;;;;;2.97;2.60;;;13.50;75.00;;;;;;5047273;28;20179;-74
2022/09/26 01:01:56;;;;;;;2.55;2.35;;;13.50;74.80;;;;;;5052707;28;20176;-74
2022/09/26 01:04:26;;;;;;;2.60;2.40;;;13.50;74.10;;;;;;5048657;28;20198;-74
2022/09/26 01:06:55;;;;;;;2.03;2.03;;;13.50;74.20;;;;;;5053295;28;20789;-74
2022/09/26 01:09:21;;;;;;;2.25;2.15;;;13.50;74.80;;;;;;5055640;28;20239;-75
2022/09/26 01:11:47;;;;;;;2.38;2.28;;;13.50;74.30;;;;;;5056488;28;20179;-74
2022/09/26 01:14:13;;;;;;;3.15;2.70;;;13.50;75.30;;;;;;5048564;28;20188;-74
2022/09/26 01:16:41;;;;;;;2.53;2.28;;;13.50;73.60;;;;;;5048490;28;20258;-74
2022/09/26 01:19:18;;;;;;;2.15;2.15;;;13.50;73.70;;;;;;5054498;28;20193;-74
2022/09/26 01:22:22;;;;;;;2.60;2.40;;;13.60;75.30;;;;;;5052265;28;20749;-74
2022/09/26 01:25:33;;;;;;;3.47;2.63;;;13.60;74.80;;;;;;5056439;28;20195;-75
2022/09/26 01:28:05;;;;;;;3.03;2.38;;;13.60;76.50;;;;;;5046189;28;20723;-73
2022/09/26 01:30:46;;;;;;;2.42;2.33;;;13.50;74.40;;;;;;5056387;28;20188;-75
2022/09/26 01:33:31;;;;;;;2.60;2.50;;;13.50;73.20;;;;;;5051656;28;20316;-75
2022/09/26 01:36:29;;;;;;;2.50;2.40;;;13.60;76.00;;;;;;5054050;28;20279;-74
2022/09/26 01:39:29;;;;;;;3.17;2.30;;;13.50;76.10;;;;;;5059700;28;20171;-74
2022/09/26 01:42:20;;;;;;;2.20;2.00;;;13.50;75.10;;;;;;5043260;28;20198;-75
2022/09/26 01:44:57;;;;;;;1.92;1.83;;;13.50;74.80;;;;;;5027122;28;20290;-75
2022/09/26 01:47:26;;;;;;;2.90;2.70;;;13.50;75.50;;;;;;5044867;28;20732;-75
2022/09/26 01:50:01;;;;;;;2.33;2.22;;;13.50;75.20;;;;;;5042902;28;20180;-74
2022/09/26 01:52:30;;;;;;;2.35;2.25;;;13.50;76.00;;;;;;5042669;28;20671;-74
2022/09/26 01:55:04;;;;;;;2.90;2.70;;;13.50;75.70;;;;;;5045653;28;20191;-75
2022/09/26 01:57:42;;;;;;;2.70;2.60;;;13.50;74.50;;;;;;5026671;28;20189;-74
2022/09/26 02:00:11;;;;;;;3.97;3.13;;;13.50;73.00;;;;;;5043793;28;20191;-74
2022/09/26 02:02:43;;;;;;;2.45;2.35;;;13.60;76.80;;;;;;5042551;28;20184;-74
2022/09/26 02:05:18;;;;;;;3.65;2.38;;;13.60;76.00;;;;;;5044212;28;20198;-74
2022/09/26 02:08:10;;;;;;;2.60;2.50;;;13.60;73.60;;;;;;5044865;28;20230;-74
2022/09/26 02:10:43;;;;;;;2.40;2.30;;;13.60;74.90;;;;;;5044368;28;20183;-73
2022/09/26 02:13:18;;;;;;;3.70;2.17;;;13.60;74.70;;;;;;5044217;28;20276;-73
2022/09/26 02:15:51;;;;;;;3.17;2.65;;;13.70;76.30;;;;;;5045738;28;20175;-73
2022/09/26 02:18:27;;;;;;;2.67;2.47;;;13.70;75.20;;;;;;5042888;28;20277;-73
2022/09/26 02:21:23;;;;;;;3.35;2.20;;;13.70;73.20;;;;;;5053706;28;20193;-73
2022/09/26 02:23:51;;;;;;;2.40;2.30;;;13.70;75.60;;;;;;5013942;28;20336;-73
2022/09/26 02:26:17;;;;;;;3.17;2.67;;;13.80;75.30;;;;;;5011765;28;20557;-73
2022/09/26 02:28:44;;;;;;;2.28;2.13;;;13.80;73.70;;;;;;5009370;28;20729;-73
2022/09/26 02:31:11;;;;;;;10.02;2.30;;;13.80;72.90;;;;;;5007361;28;20228;-74
2022/09/26 02:33:37;;;;;;;2.47;2.28;;;13.80;72.60;;;;;;5012768;28;20192;-74
2022/09/26 02:36:07;;;;;;;3.20;3.00;;;13.90;76.10;;;;;;5012133;28;20666;-75
2022/09/26 02:38:33;;;;;;;3.00;2.80;;;13.90;75.10;;;;;;5007982;28;20316;-75
2022/09/26 02:41:08;;;;;;;2.85;2.65;;;13.90;75.60;;;;;;5006520;28;20216;-75
2022/09/26 02:44:10;;;;;;;2.55;2.40;;;13.90;74.40;;;;;;5007582;28;20201;-73
2022/09/26 02:47:03;;;;;;;6.30;2.40;;;13.90;73.50;;;;;;5012432;28;20206;-73
2022/09/26 02:50:07;;;;;;;2.88;2.67;;;14.00;75.00;;;;;;5010501;28;20220;-74
2022/09/26 02:53:05;;;;;;;4.80;2.38;;;14.10;75.60;;;;;;4944467;28;20194;-74
2022/09/26 02:55:53;;;;;;;3.03;2.17;;;14.00;73.20;;;;;;4870597;29;20212;-74
2022/09/26 02:58:35;;;;;;;2.40;2.30;;;14.00;73.40;;;;;;4870743;29;20268;-73
2022/09/26 03:01:09;;;;;;;6.90;2.58;;;14.10;73.80;;;;;;4900339;29;20196;-74
2022/09/26 03:03:51;;;;;;;2.72;2.53;;;14.10;75.60;;;;;;4911021;29;20187;-73
2022/09/26 03:06:23;;;;;;;3.30;3.03;;;14.10;73.70;;;;;;4910173;29;20262;-73
2022/09/26 03:08:51;;;;;;;2.50;2.40;;;14.10;73.50;;;;;;4909068;29;20305;-74
2022/09/26 03:11:22;;;;;;;2.75;2.45;;;14.10;73.20;;;;;;4907394;29;20204;-73
2022/09/26 03:13:51;;;;;;;3.15;2.95;;;14.10;73.40;;;;;;4908959;29;20207;-73
2022/09/26 03:16:18;;;;;;;3.05;2.75;;;14.10;73.30;;;;;;4907010;29;20287;-73
2022/09/26 03:18:59;;;;;;;2.42;2.33;;;14.20;74.00;;;;;;4887806;29;20735;-73
2022/09/26 03:21:25;;;;;;;2.50;2.40;;;14.20;72.60;;;;;;4906001;29;20689;-74
2022/09/26 03:23:51;;;;;;;2.67;2.58;;;14.20;73.90;;;;;;4907815;29;20184;-74
2022/09/26 03:26:23;;;;;;;2.92;2.72;;;14.20;73.50;;;;;;4907288;29;20602;-72
2022/09/26 03:28:52;;;;;;;5.47;2.72;;;14.20;75.60;;;;;;4954654;28;20232;-75
2022/09/26 03:31:23;;;;;;;3.17;2.80;;;14.20;74.80;;;;;;4988431;28;20627;-74
2022/09/26 03:33:50;;;;;;;2.53;2.42;;;14.10;73.20;;;;;;5049983;28;20188;-74
2022/09/26 03:36:16;;;;;;;3.08;2.63;;;14.10;73.50;;;;;;5054121;28;20308;-74
2022/09/26 03:38:42;;;;;;;3.13;2.92;;;14.10;74.70;;;;;;5046956;28;21468;-74
2022/09/26 03:41:08;;;;;;;2.40;2.33;;;14.10;73.20;;;;;;5046741;28;20240;-74
2022/09/26 03:43:35;;;;;;;3.15;2.30;;;14.10;73.90;;;;;;5047360;28;20182;-74
2022/09/26 03:46:05;;;;;;;2.63;2.50;;;14.10;74.20;;;;;;5051963;28;20203;-74
2022/09/26 03:48:32;;;;;;;3.15;2.85;;;14.10;74.70;;;;;;5047616;28;20756;-74
2022/09/26 03:51:10;;;;;;;2.55;2.45;;;14.10;73.40;;;;;;5049147;28;20459;-75
2022/09/26 03:53:38;;;;;;;3.13;2.85;;;14.00;72.60;;;;;;5048831;28;20262;-75
2022/09/26 03:56:10;;;;;;;4.75;3.65;;;14.10;73.90;;;;;;5051889;28;20276;-74
2022/09/26 03:58:36;;;;;;;4.25;3.38;;;14.10;74.40;;;;;;5050263;28;20190;-74
2022/09/26 04:01:10;;;;;;;3.20;2.92;;;14.00;74.60;;;;;;5048961;28;20241;-75
2022/09/26 04:03:37;;;;;;;2.83;2.72;;;14.10;75.10;;;;;;5047547;28;20187;-75
2022/09/26 04:06:07;;;;;;;4.38;2.92;;;14.10;76.40;;;;;;5054049;28;20179;-75
2022/09/26 04:08:35;;;;;;;3.65;3.20;;;14.10;76.50;;;;;;5051180;28;20241;-75
2022/09/26 04:11:12;;;;;;;3.83;2.50;;;14.00;76.30;;;;;;5051864;28;20698;-74
2022/09/26 04:13:38;;;;;;;2.75;2.47;;;14.00;76.70;;;;;;5081389;28;20324;-75
2022/09/26 04:16:04;;;;;;;3.00;2.80;;;14.00;76.90;;;;;;5054101;28;20187;-75
2022/09/26 04:18:31;;;;;;;3.30;3.10;;;13.90;77.20;;;;;;5047822;28;20203;-74
2022/09/26 04:20:58;;;;;;;2.80;2.60;;;13.80;75.80;;;;;;5040164;28;20278;-74
2022/09/26 04:23:27;;;;;;;3.40;3.20;;;13.90;75.20;;;;;;5048532;28;20292;-74
2022/09/26 04:25:52;;;;;;;3.22;2.97;;;13.80;75.80;;;;;;5049433;28;20183;-74
2022/09/26 04:28:18;;;;;;;3.85;2.97;;;13.90;76.60;;;;;;5048938;28;20583;-74
2022/09/26 04:30:44;;;;;;;3.20;3.00;;;13.90;75.60;;;;;;5047490;28;20558;-74
2022/09/26 04:33:09;;;;;;;3.42;3.13;;;13.90;74.70;;;;;;5051613;28;20183;-74
2022/09/26 04:35:35;;;;;;;2.85;2.65;;;13.90;73.90;;;;;;5048926;28;20177;-74
2022/09/26 04:38:01;;;;;;;3.15;3.05;;;14.00;74.70;;;;;;5051059;28;20198;-74
2022/09/26 04:40:27;;;;;;;2.85;2.75;;;14.00;74.00;;;;;;5049177;28;20575;-74
2022/09/26 04:42:53;;;;;;;3.42;3.03;;;14.00;73.70;;;;;;5051669;28;20186;-75
2022/09/26 04:45:19;;;;;;;3.47;3.17;;;14.10;74.10;;;;;;5052798;28;20191;-74
2022/09/26 04:47:44;;;;;;;3.75;3.38;;;14.20;74.10;;;;;;5053506;28;20217;-74
2022/09/26 04:50:10;;;;;;;3.05;2.85;;;14.20;73.80;;;;;;5051612;28;20175;-74
2022/09/26 04:52:36;;;;;;;3.72;3.40;;;14.30;75.10;;;;;;5053406;28;20175;-74
2022/09/26 04:55:02;;;;;;;3.95;3.60;;;14.30;74.10;;;;;;5057977;28;20181;-74
2022/09/26 04:57:28;;;;;;;3.88;3.42;;;14.30;73.70;;;;;;5054104;28;20263;-74
2022/09/26 04:59:54;;;;;;;4.30;3.90;;;14.30;73.60;;;;;;5055352;28;20275;-74
2022/09/26 05:02:20;;;;;;;5.57;3.78;;;14.30;74.20;;;;;;5049885;28;20183;-74
2022/09/26 05:04:47;;;;;;;4.65;3.28;;;14.30;73.60;;;;;;5051507;28;20334;-74
2022/09/26 05:07:14;;;;;;;4.63;3.95;;;14.40;74.80;;;;;;5050494;28;20190;-74
2022/09/26 05:09:41;;;;;;;4.63;4.20;;;14.40;73.70;;;;;;5045807;28;20219;-74
2022/09/26 05:12:07;;;;;;;4.38;3.97;;;14.40;73.40;;;;;;5049684;28;20180;-74
2022/09/26 05:14:34;;;;;;;3.83;3.50;;;14.40;73.40;;;;;;5050015;28;20175;-74
2022/09/26 05:17:01;;;;;;;4.68;4.05;;;14.40;73.60;;;;;;5049271;28;20183;-74
2022/09/26 05:19:27;;;;;;;3.95;3.13;;;14.40;74.40;;;;;;5048884;28;20187;-75
2022/09/26 05:21:53;;;;;;;3.95;3.65;;;14.50;73.60;;;;;;5057558;28;20708;-74
2022/09/26 05:27:06;;;;;;;3.42;3.13;;;14.50;73.20;;;;;;5052145;28;20259;-74
2022/09/26 05:29:31;;;;;;;3.38;3.17;;;14.60;73.00;;;;;;5048340;28;20382;-74
2022/09/26 05:32:00;;;;;;;3.20;3.05;;;14.60;73.10;;;;;;5053957;28;20282;-74
2022/09/26 05:34:25;;;;;;;3.58;3.38;;;14.70;73.60;;;;;;5078569;28;20324;-75
2022/09/26 05:36:52;;;;;;;4.20;3.50;;;14.80;73.20;;;;;;5054703;28;20226;-74
2022/09/26 05:42:04;;;;;;;4.15;3.38;;;15.00;73.90;;;;;;5052174;28;20215;-74
2022/09/26 05:44:30;;;;;;;4.50;4.20;;;15.10;73.30;;;;;;5054007;28;20184;-74
2022/09/26 05:46:56;;;;;;;6.85;4.05;;;15.20;73.70;;;;;;5054001;28;20186;-74
2022/09/26 05:49:22;;;;;;;6.18;4.57;;;15.30;73.90;;;;;;5050903;28;20216;-74
2022/09/26 05:51:48;;;;;;;3.38;3.17;;;15.30;73.40;;;;;;5053410;28;20232;-74
2022/09/26 05:54:14;;;;;;;4.90;4.05;;;15.40;74.90;;;;;;5045153;28;20250;-74
2022/09/26 05:56:39;;;;;;;4.15;3.85;;;15.50;74.40;;;;;;5054545;28;20182;-76
2022/09/26 05:59:05;;;;;;;6.60;4.18;;;15.50;74.80;;;;;;5062080;28;20183;-76
2022/09/26 06:01:32;;;;;;;4.18;3.63;;;15.60;74.50;;;;;;5060925;28;20236;-76
2022/09/26 06:03:58;;;;;;;6.82;4.25;;;15.60;73.80;;;;;;5061906;28;20191;-76
2022/09/26 06:06:24;;;;;;;8.00;4.25;;;15.50;73.90;;;;;;5050811;28;20191;-76
2022/09/26 06:08:50;;;;;;;5.38;4.85;;;15.50;73.90;;;;;;5049682;28;20794;-76
2022/09/26 06:11:19;;;;;;;4.65;4.15;;;15.60;73.30;;;;;;5051924;28;20220;-75
2022/09/26 06:13:45;;;;;;;6.25;4.57;;;15.60;73.20;;;;;;5054356;28;20243;-75
2022/09/26 06:16:17;;;;;;;4.22;3.92;;;15.70;73.80;;;;;;5051443;28;20180;-75
2022/09/26 06:18:42;;;;;;;7.32;4.47;;;15.70;73.20;;;;;;5050529;28;20244;-76
2022/09/26 06:21:10;;;;;;;3.90;3.60;;;15.80;73.50;;;;;;5052300;28;20179;-76
2022/09/26 06:23:36;;;;;;;4.65;4.25;;;15.90;73.00;;;;;;5050725;28;20231;-74
2022/09/26 06:26:07;;;;;;;7.35;4.95;;;16.00;74.20;;;;;;5049519;28;20192;-74
2022/09/26 06:28:33;;;;;;;8.80;5.13;;;16.20;73.80;;;;;;5052543;28;20238;-74
2022/09/26 06:31:11;;;;;;;6.05;4.93;;;16.30;74.10;;;;;;5050554;28;21004;-76
2022/09/26 06:33:37;;;;;;;7.43;5.43;;;16.40;73.20;;;;;;5053933;28;20225;-76
2022/09/26 06:36:08;;;;;;;6.50;4.70;;;16.50;73.20;;;;;;5044528;28;20764;-76
2022/09/26 06:38:35;;;;;;;5.93;5.35;;;16.50;72.90;;;;;;5051379;28;20214;-79
2022/09/26 06:41:01;;;;;;;5.55;5.05;;;16.60;73.40;;;;;;5062275;28;20201;-76
2022/09/26 06:43:27;;;;;;;4.80;4.40;;;16.70;73.30;;;;;;5052668;28;20199;-76
2022/09/26 06:45:52;;;;;;;8.25;4.70;;;16.80;73.10;;;;;;5053400;28;20289;-75
2022/09/26 06:48:23;;;;;;;7.43;5.85;;;16.90;72.90;;;;;;5050849;28;20215;-75
2022/09/26 06:50:54;;;;;;;7.68;6.38;;;17.00;72.80;;;;;;5051959;28;20197;-77
2022/09/26 06:53:20;;;;;;;11.07;6.15;;;17.10;72.00;;;;;;5047806;28;20269;-75
2022/09/26 06:55:46;;;;;;;7.55;5.53;;;17.10;72.40;;;;;;5053218;28;20178;-76
2022/09/26 06:58:49;;;;;;;7.88;5.90;;;17.20;72.10;;;;;;5056047;28;21061;-75
2022/09/26 07:01:15;;;;;;;7.20;5.32;;;17.20;71.80;;;;;;5050064;28;20189;-76
2022/09/26 07:03:40;;;;;;;6.43;5.78;;;17.20;72.10;;;;;;5051097;28;20179;-75
2022/09/26 07:06:07;;;;;;;6.03;5.07;;;17.30;71.90;;;;;;5048971;28;20688;-75
2022/09/26 07:08:33;;;;;;;6.25;5.68;;;17.30;71.80;;;;;;5051256;28;20212;-77
2022/09/26 07:11:00;;;;;;;8.68;6.28;;;17.30;71.70;;;;;;5051269;28;20183;-77
2022/09/26 07:13:28;;;;;;;6.25;5.10;;;17.30;71.80;;;;;;5045803;28;20260;-75
2022/09/26 07:15:57;;;;;;;5.97;5.47;;;17.40;71.90;;;;;;5048915;28;20183;-75
2022/09/26 07:18:23;;;;;;;5.63;4.97;;;17.60;71.50;;;;;;5052769;28;20183;-77
2022/09/26 07:20:49;;;;;;;5.50;4.80;;;17.80;71.40;;;;;;5053524;28;20179;-75
2022/09/26 07:23:15;;;;;;;11.55;5.97;;;18.00;71.50;;;;;;5055389;28;20618;-75
2022/09/26 07:25:44;;;;;;;9.77;5.65;;;18.10;71.20;;;;;;5049850;28;20175;-74
2022/09/26 07:28:12;;;;;;;5.45;4.85;;;18.40;70.70;;;;;;5047579;28;20933;-77
2022/09/26 07:30:37;;;;;;;5.50;4.38;;;18.50;70.30;;;;;;5056663;28;20187;-74
2022/09/26 07:33:04;;;;;;;3.90;3.47;;;18.70;70.00;;;;;;5055516;28;20189;-75
2022/09/26 07:35:31;;;;;;;3.55;3.35;;;18.90;69.60;;;;;;5050799;28;20643;-76
2022/09/26 07:37:57;;;;;;;3.80;3.47;;;19.10;69.10;;;;;;5043619;28;20187;-74
2022/09/26 07:40:24;;;;;;;3.55;3.30;;;19.30;68.40;;;;;;5052547;28;20189;-72
2022/09/26 07:42:51;;;;;;;5.28;3.22;;;19.40;68.20;;;;;;5078067;28;20190;-73
2022/09/26 07:50:09;;;;;;;3.25;3.00;;;19.50;67.10;;;;;;5046849;28;20199;-74
2022/09/26 07:50:52;;;;;;;2.90;2.72;;;19.70;66.80;;;;;;5047649;28;20225;-74
2022/09/26 07:53:18;;;;;;;2.92;2.72;;;19.80;66.10;;;;;;5046820;28;20180;-76
2022/09/26 07:56:04;;;;;;;4.47;2.30;;;19.90;65.50;;;;;;5043741;28;20179;-77
2022/09/26 07:58:30;;;;;;;7.70;2.53;;;20.00;65.90;;;;;;5049611;28;20282;-74
2022/09/26 08:00:56;;;;;;;2.50;2.30;;;20.10;64.90;;;;;;5077024;28;20211;-77
2022/09/26 08:03:23;;;;;;;8.13;3.13;;;20.50;64.50;;;;;;5044724;28;20314;-78
2022/09/26 08:05:50;;;;;;;3.22;3.08;;;20.90;66.40;;;;;;5046888;28;20183;-74
2022/09/26 08:08:15;;;;;;;3.08;2.90;;;21.50;64.20;;;;;;5057565;28;20210;-74
2022/09/26 08:10:42;;;;;;;4.15;2.65;;;22.30;63.70;;;;;;5043656;28;20180;-76
2022/09/26 08:13:07;;;;;;;3.60;3.30;;;23.20;63.70;;;;;;5047367;28;20955;-75
2022/09/26 08:15:33;;;;;;;3.30;3.10;;;24.10;60.70;;;;;;5043653;28;20198;-75
2022/09/26 08:17:59;;;;;;;3.55;2.75;;;24.90;59.50;;;;;;5041351;28;20179;-76
2022/09/26 08:20:24;;;;;;;3.63;3.33;;;25.70;58.40;;;;;;5048825;28;20900;-76
2022/09/26 08:22:54;;;;;;;3.60;3.40;;;26.40;57.50;;;;;;5045573;28;20179;-76
2022/09/26 08:25:20;;;;;;;3.63;3.30;;;27.00;54.20;;;;;;5043575;28;20191;-76
2022/09/26 08:27:47;;;;;;;2.90;2.80;;;27.30;55.40;;;;;;5048711;28;20194;-76
2022/09/26 08:30:13;;;;;;;6.50;4.18;;;27.70;54.10;;;;;;5052331;28;20190;-76
2022/09/26 08:32:40;;;;;;;5.65;3.50;;;27.90;53.70;;;;;;5046888;28;20244;-76
2022/09/26 08:35:06;;;;;;;7.32;4.00;;;28.00;54.20;;;;;;5087508;28;20189;-76
2022/09/26 08:37:32;;;;;;;3.72;3.53;;;28.20;54.20;;;;;;5054390;28;20191;-76
2022/09/26 08:39:59;;;;;;;4.82;3.80;;;28.50;53.80;;;;;;5056163;28;20816;-76
2022/09/26 08:42:37;;;;;;;4.10;3.80;;;28.90;53.50;;;;;;5051964;28;20340;-76
2022/09/26 08:48:28;;;;;;;3.63;3.42;;;29.90;52.30;;;;;;5051309;28;21017;-76
2022/09/26 08:51:08;;;;;;;6.40;3.60;;;30.60;50.80;;;;;;5049802;28;20172;-76
2022/09/26 08:53:48;;;;;;;3.03;2.80;;;31.30;50.70;;;;;;5050238;28;20182;-76
2022/09/26 08:56:20;;;;;;;3.80;3.33;;;32.00;48.70;;;;;;5048019;28;20214;-77
2022/09/26 08:58:50;;;;;;;3.47;3.10;;;32.40;49.20;;;;;;5047701;28;20240;-76
2022/09/26 09:01:27;;;;;;;3.88;3.40;;;32.80;49.60;;;;;;5051509;28;20177;-76
2022/09/26 09:04:22;;;;;;;3.28;3.15;;;33.10;49.30;;;;;;5052438;28;20178;-76
2022/09/26 09:07:01;;;;;;;3.22;3.13;;;33.10;49.40;;;;;;5041247;28;20681;-77
2022/09/26 09:09:26;;;;;;;4.10;2.78;;;33.00;48.40;;;;;;5040945;28;20207;-76
2022/09/26 09:12:32;;;;;;;3.58;2.78;;;32.90;49.20;;;;;;5043783;28;20196;-75
2022/09/26 09:15:20;;;;;;;2.67;2.58;;;33.00;48.90;;;;;;5026530;28;20774;-75
2022/09/26 09:18:03;;;;;;;2.95;2.75;;;33.50;47.70;;;;;;5043512;28;20194;-75
2022/09/26 09:21:00;;;;;;;2.80;2.60;;;34.10;47.60;;;;;;5044626;28;20222;-75
2022/09/26 09:24:06;;;;;;;3.72;2.95;;;34.90;46.20;;;;;;5039438;28;20192;-76
2022/09/26 09:26:36;;;;;;;5.70;2.60;;;35.70;45.20;;;;;;5021831;28;20183;-75
2022/09/26 09:29:35;;;;;;;2.45;2.40;;;36.40;46.70;;;;;;5024931;28;20381;-75
2022/09/26 09:32:02;;;;;;;5.22;2.70;;;36.90;44.30;;;;;;5038498;28;20740;-76
2022/09/26 09:34:37;;;;;;;2.10;2.08;;;37.40;42.60;;;;;;5040483;28;20175;-76
2022/09/26 09:37:15;;;;;;;3.95;2.58;;;37.60;43.70;;;;;;5041133;28;20285;-76
2022/09/26 09:39:46;;;;;;;2.22;2.17;;;37.60;45.60;;;;;;5038327;28;20187;-76
2022/09/26 09:42:18;;;;;;;2.75;2.65;;;37.70;44.90;;;;;;5039459;28;20294;-77
2022/09/26 09:44:47;;;;;;;2.70;2.60;;;37.60;45.20;;;;;;5039213;28;20207;-76
2022/09/26 09:47:15;;;;;;;2.42;2.35;;;37.40;41.70;;;;;;5045983;28;20211;-77
2022/09/26 09:49:43;;;;;;;3.35;2.70;;;37.40;43.50;;;;;;5041323;28;20211;-77
2022/09/26 09:52:24;;;;;;;2.25;2.25;;;37.20;43.50;;;;;;5049596;28;20317;-76
2022/09/26 09:55:03;;;;;;;2.42;2.33;;;37.20;41.90;;;;;;5051901;28;20291;-78
2022/09/26 09:57:54;;;;;;;1.63;1.63;;;37.20;45.40;;;;;;5048866;28;20241;-77
2022/09/26 10:00:22;;;;;;;2.45;2.33;;;37.30;41.40;;;;;;5049498;28;20187;-76
2022/09/26 10:03:00;;;;;;;2.45;2.25;;;37.00;43.80;;;;;;5053295;28;20182;-75
2022/09/26 10:05:43;;;;;;;3.03;2.45;;;36.60;44.10;;;;;;5048265;28;20240;-77
2022/09/26 10:08:12;;;;;;;1.98;1.83;;;36.40;45.20;;;;;;5051323;28;20215;-77
2022/09/26 10:11:11;;;;;;;2.08;1.98;;;36.30;44.20;;;;;;5057249;28;20521;-79
2022/09/26 10:13:41;;;;;;;1.55;1.55;;;36.50;44.70;;;;;;5053333;28;20184;-77
2022/09/26 10:16:13;;;;;;;1.70;1.70;;;36.70;44.40;;;;;;5048827;28;20317;-77
2022/09/26 10:19:07;;;;;;;2.00;1.90;;;36.90;44.70;;;;;;5049395;28;20195;-76
2022/09/26 10:21:39;;;;;;;1.63;1.52;;;36.80;42.30;;;;;;5044732;28;20195;-75
2022/09/26 10:24:21;;;;;;;2.30;2.20;;;36.40;42.80;;;;;;5045665;28;20739;-76
2022/09/26 10:26:49;;;;;;;1.83;1.77;;;36.00;44.00;;;;;;5050654;28;20799;-76
2022/09/26 10:29:33;;;;;;;2.28;1.80;;;35.50;43.10;;;;;;5045105;28;20219;-76
2022/09/26 10:31:59;;;;;;;1.83;1.50;;;35.10;43.20;;;;;;5056603;28;20182;-76
2022/09/26 10:34:32;;;;;;;4.85;2.47;;;34.80;44.10;;;;;;5040604;28;20187;-75
2022/09/26 10:37:24;;;;;;;3.70;2.55;;;34.80;45.70;;;;;;5043371;28;20267;-75
2022/09/26 10:42:39;;;;;;;2.63;2.42;;;34.40;45.00;;;;;;5050074;28;20190;-74
2022/09/26 10:45:14;;;;;;;2.28;2.08;;;33.90;44.50;;;;;;5053852;28;20755;-74
2022/09/26 10:47:44;;;;;;;5.45;2.25;;;33.50;46.10;;;;;;5051731;28;20663;-74
2022/09/26 10:50:26;;;;;;;2.35;2.20;;;33.40;46.60;;;;;;5044877;28;20176;-74
2022/09/26 10:53:07;;;;;;;2.10;2.10;;;33.40;46.70;;;;;;5079116;28;21046;-74
2022/09/26 10:55:46;;;;;;;6.10;2.20;;;33.40;46.00;;;;;;5048307;28;20191;-76
2022/09/26 10:58:22;;;;;;;2.10;1.95;;;33.40;46.70;;;;;;5046510;28;20191;-75
2022/09/26 11:00:50;;;;;;;1.50;1.50;;;33.40;46.60;;;;;;5046486;28;20181;-76
2022/09/26 11:03:24;;;;;;;1.10;1.10;;;33.40;46.30;;;;;;5054048;28;20342;-76
2022/09/26 11:05:56;;;;;;;1.23;1.23;;;33.30;46.60;;;;;;5045765;28;20233;-76
2022/09/26 11:08:28;;;;;;;1.35;1.35;;;33.30;46.30;;;;;;5047109;28;20214;-76
2022/09/26 11:10:57;;;;;;;3.88;1.35;;;33.40;46.90;;;;;;5044482;28;20188;-76
2022/09/26 11:13:30;;;;;;;2.33;1.23;;;33.60;47.00;;;;;;5049701;28;20179;-76
2022/09/26 11:16:11;;;;;;;4.32;1.40;;;33.80;45.90;;;;;;5050380;28;20186;-77
2022/09/26 11:18:41;;;;;;;2.75;1.33;;;34.00;45.50;;;;;;5061259;28;20204;-77
2022/09/26 11:21:16;;;;;;;1.20;1.20;;;34.00;46.80;;;;;;5067427;28;20526;-77
2022/09/26 11:23:55;;;;;;;1.80;1.00;;;34.00;46.10;;;;;;5063184;28;20190;-78
2022/09/26 11:26:34;;;;;;;1.48;1.10;;;34.10;46.50;;;;;;5058703;28;20263;-77
2022/09/26 11:29:42;;;;;;;1.15;1.15;;;34.20;44.80;;;;;;5061127;28;20207;-77
2022/09/26 11:32:22;;;;;;;2.05;1.38;;;34.20;45.10;;;;;;5049143;28;20297;-77
2022/09/26 11:34:51;;;;;;;1.10;1.10;;;34.20;45.60;;;;;;5045827;28;20189;-77
2022/09/26 11:37:54;;;;;;;1.10;1.10;;;34.20;45.40;;;;;;5044915;28;21126;-77
2022/09/26 11:40:54;;;;;;;0.90;0.90;;;34.30;45.30;;;;;;5039722;28;20237;-77
2022/09/26 11:43:37;;;;;;;1.15;1.10;;;34.40;46.00;;;;;;5037272;28;20204;-77
2022/09/26 11:46:31;;;;;;;1.38;1.38;;;34.50;46.10;;;;;;5037542;28;20209;-76
2022/09/26 11:49:16;;;;;;;1.10;1.10;;;34.80;45.70;;;;;;5036494;28;20219;-76
2022/09/26 11:52:02;;;;;;;1.60;1.50;;;35.30;46.20;;;;;;5035553;28;20285;-75
2022/09/26 11:54:57;;;;;;;1.58;1.23;;;35.80;44.40;;;;;;5034942;28;20191;-75
2022/09/26 11:57:46;;;;;;;0.95;0.95;;;36.10;43.50;;;;;;5019328;28;20199;-76
2022/09/26 12:00:27;;;;;;;0.88;0.88;;;36.40;42.60;;;;;;5034534;28;20182;-75
2022/09/26 12:03:12;;;;;;;0.82;0.82;;;36.60;43.30;;;;;;5036370;28;20282;-75
2022/09/26 12:06:01;;;;;;;2.90;0.93;;;36.90;43.90;;;;;;5020550;28;20961;-76
2022/09/26 12:08:35;;;;;;;1.95;1.13;;;37.10;42.80;;;;;;5039795;28;20980;-77
2022/09/26 12:11:27;;;;;;;5.10;1.30;;;37.20;42.70;;;;;;5049734;28;20294;-73
2022/09/26 12:14:12;;;;;;;1.13;1.00;;;37.20;42.80;;;;;;5052721;28;20175;-76
2022/09/26 12:16:58;;;;;;;3.00;1.00;;;37.20;42.20;;;;;;5053494;28;20206;-76
2022/09/26 12:20:00;;;;;;;1.10;1.10;;;37.30;42.40;;;;;;5047467;28;20186;-76
2022/09/26 12:22:28;;;;;;;1.00;1.00;;;37.40;42.40;;;;;;5051181;28;20247;-80
2022/09/26 12:25:25;;;;;;;2.45;0.77;;;37.40;42.70;;;;;;5051603;28;20582;-77
2022/09/26 12:28:10;;;;;;;1.33;1.10;;;37.20;42.30;;;;;;5053736;28;21046;-76
2022/09/26 12:31:30;;;;;;;1.40;1.30;;;36.80;42.70;;;;;;5043673;28;20186;-76
2022/09/26 12:34:14;;;;;;;1.00;1.00;;;36.40;42.80;;;;;;5048775;28;20209;-76
2022/09/26 12:37:00;;;;;;;0.80;0.80;;;35.80;43.30;;;;;;5069831;28;20178;-77
2022/09/26 12:39:53;;;;;;;2.15;1.15;;;35.40;44.50;;;;;;5064430;28;20274;-78
2022/09/26 12:42:59;;;;;;;1.48;1.00;;;34.90;44.80;;;;;;5063303;28;20322;-79
2022/09/26 12:45:41;;;;;;;1.27;1.08;;;34.40;45.40;;;;;;5046882;28;20197;-78
2022/09/26 12:48:28;;;;;;;2.28;1.13;;;33.90;46.30;;;;;;5063478;28;20236;-77
2022/09/26 12:51:21;;;;;;;3.53;0.88;;;33.40;45.80;;;;;;5047010;28;20662;-79
2022/09/26 12:54:18;;;;;;;1.08;0.98;;;33.30;46.40;;;;;;5065880;28;20186;-78
2022/09/26 12:57:03;;;;;;;3.47;1.27;;;32.90;46.70;;;;;;5066776;28;20206;-77
2022/09/26 12:59:48;;;;;;;2.45;1.35;;;32.50;47.70;;;;;;5062687;28;20187;-78
2022/09/26 13:02:16;;;;;;;0.68;0.68;;;32.10;47.80;;;;;;5065201;28;20186;-78
2022/09/26 13:04:54;;;;;;;1.08;1.08;;;31.80;47.90;;;;;;5057309;28;20198;-77
2022/09/26 13:07:41;;;;;;;0.90;0.90;;;31.60;48.70;;;;;;5043667;28;20191;-77
2022/09/26 13:10:30;;;;;;;0.90;0.90;;;31.30;49.10;;;;;;5048978;28;20218;-82
2022/09/26 13:13:12;;;;;;;0.95;0.95;;;31.00;49.00;;;;;;5046552;28;20180;-78
2022/09/26 13:15:46;;;;;;;2.15;1.10;;;30.50;49.80;;;;;;5049766;28;20184;-78
2022/09/26 13:18:25;;;;;;;0.85;0.82;;;30.20;50.20;;;;;;5050926;28;20642;-78
2022/09/26 13:20:57;;;;;;;1.45;1.02;;;29.70;50.80;;;;;;5048209;28;20187;-78
2022/09/26 13:23:37;;;;;;;1.10;1.02;;;29.40;51.00;;;;;;5048771;28;20199;-78
2022/09/26 13:26:28;;;;;;;0.90;0.90;;;29.20;51.00;;;;;;5053003;28;20179;-79
2022/09/26 13:29:02;;;;;;;0.75;0.75;;;29.10;51.50;;;;;;5002765;28;20225;-78
2022/09/26 13:31:54;;;;;;;1.00;1.00;;;28.80;51.80;;;;;;4988000;28;20195;-78
2022/09/26 13:34:34;;;;;;;1.65;0.85;;;28.60;51.70;;;;;;5001211;28;20193;-80
2022/09/26 13:37:03;;;;;;;1.10;1.10;;;28.60;51.60;;;;;;5003431;28;20247;-79